createdAt,value
2023-04-15T00:00:11.314Z,10.28
2023-04-15T00:01:11.295Z,10.36
2023-04-15T00:02:11.350Z,10.11
2023-04-15T00:03:11.453Z,10.53
2023-04-15T00:04:11.317Z,10.34
2023-04-15T00:05:11.253Z,10.06
2023-04-15T00:06:11.227Z,10.00
2023-04-15T00:07:11.212Z,10.11
2023-04-15T00:08:11.290Z,10.13
2023-04-15T00:09:11.186Z,10.18
2023-04-15T00:10:11.190Z,10.02
2023-04-15T00:11:11.183Z,9.89
2023-04-15T00:12:11.173Z,9.83
2023-04-15T00:13:11.180Z,10.09
2023-04-15T00:14:11.151Z,9.95
2023-04-15T00:15:11.144Z,9.89
2023-04-15T00:16:11.212Z,9.80
2023-04-15T00:17:11.129Z,10.10
2023-04-15T00:18:11.129Z,10.02
2023-04-15T00:19:11.116Z,9.85
2023-04-15T00:20:11.111Z,9.72
2023-04-15T00:21:11.100Z,9.79
2023-04-15T00:22:11.090Z,9.71
2023-04-15T00:23:11.120Z,9.66
2023-04-15T00:24:11.152Z,9.79
2023-04-15T00:25:11.184Z,9.63
2023-04-15T00:26:11.209Z,9.62
2023-04-15T00:27:11.224Z,9.47
2023-04-15T00:28:11.232Z,9.55
2023-04-15T00:29:11.248Z,9.59
2023-04-15T00:30:11.248Z,9.72
2023-04-15T00:31:11.312Z,9.37
2023-04-15T00:32:11.263Z,9.42
2023-04-15T00:33:11.314Z,9.71
2023-04-15T00:34:11.341Z,9.60
2023-04-15T00:35:11.407Z,9.45
2023-04-15T00:36:11.428Z,9.50
2023-04-15T00:37:11.449Z,9.44
2023-04-15T00:38:11.452Z,9.52
2023-04-15T00:39:11.468Z,9.39
2023-04-15T00:40:11.443Z,9.40
2023-04-15T00:41:11.422Z,9.42
2023-04-15T00:42:11.414Z,9.41
2023-04-15T00:43:11.402Z,9.49
2023-04-15T00:44:11.409Z,9.39
2023-04-15T00:45:11.387Z,9.54
2023-04-15T00:46:11.422Z,9.18
2023-04-15T00:47:11.363Z,9.20
2023-04-15T00:48:11.352Z,9.20
2023-04-15T00:49:11.350Z,9.25
2023-04-15T00:50:11.320Z,9.19
2023-04-15T00:51:11.314Z,9.53
2023-04-15T00:52:11.300Z,9.29
2023-04-15T00:53:11.297Z,9.35
2023-04-15T00:54:11.265Z,9.30
2023-04-15T00:55:11.300Z,9.32
2023-04-15T00:56:11.230Z,9.25
2023-04-15T00:57:11.231Z,9.25
2023-04-15T00:58:11.230Z,9.17
2023-04-15T00:59:11.201Z,9.10
2023-04-15T01:00:11.221Z,8.95
2023-04-15T01:01:11.194Z,9.11
2023-04-15T01:02:11.241Z,9.24
2023-04-15T01:03:11.368Z,8.95
2023-04-15T01:04:11.257Z,9.03
2023-04-15T01:05:11.160Z,9.03
2023-04-15T01:06:11.125Z,9.05
2023-04-15T01:07:11.128Z,9.03
2023-04-15T01:08:11.109Z,9.08
2023-04-15T01:09:11.107Z,9.21
2023-04-15T01:10:11.068Z,8.89
2023-04-15T01:11:11.070Z,8.91
2023-04-15T01:12:11.032Z,8.96
2023-04-15T01:13:11.032Z,8.97
2023-04-15T01:14:11.009Z,8.96
2023-04-15T01:15:10.993Z,8.96
2023-04-15T01:16:11.007Z,8.91
2023-04-15T01:17:10.959Z,8.95
2023-04-15T01:18:10.945Z,9.04
2023-04-15T01:19:10.954Z,9.00
2023-04-15T01:20:10.924Z,9.02
2023-04-15T01:21:10.900Z,9.05
2023-04-15T01:22:10.900Z,9.02
2023-04-15T01:23:10.892Z,8.92
2023-04-15T01:24:10.888Z,8.90
2023-04-15T01:25:10.898Z,8.67
2023-04-15T01:26:10.857Z,8.82
2023-04-15T01:27:10.850Z,8.66
2023-04-15T01:28:10.842Z,8.66
2023-04-15T01:29:10.840Z,8.66
2023-04-15T01:30:10.830Z,8.72
2023-04-15T01:31:10.865Z,8.64
2023-04-15T01:32:10.812Z,8.73
2023-04-15T01:33:10.804Z,8.71
2023-04-15T01:34:10.792Z,8.54
2023-04-15T01:35:10.801Z,8.77
2023-04-15T01:36:10.791Z,8.73
2023-04-15T01:37:10.770Z,8.48
2023-04-15T01:38:10.764Z,8.68
2023-04-15T01:39:10.759Z,8.57
2023-04-15T01:40:10.735Z,8.56
2023-04-15T01:41:10.736Z,8.50
2023-04-15T01:42:10.729Z,8.37
2023-04-15T01:43:10.735Z,8.45
2023-04-15T01:44:10.735Z,8.46
2023-04-15T01:45:10.706Z,8.44
2023-04-15T01:46:10.746Z,8.43
2023-04-15T01:47:10.707Z,8.34
2023-04-15T01:48:10.717Z,8.29
2023-04-15T01:49:10.732Z,8.31
2023-04-15T01:50:10.709Z,8.32
2023-04-15T01:51:10.749Z,8.30
2023-04-15T01:52:10.729Z,8.41
2023-04-15T01:53:10.693Z,8.36
2023-04-15T01:54:10.691Z,8.58
2023-04-15T01:55:10.674Z,8.26
2023-04-15T01:56:10.681Z,8.44
2023-04-15T01:57:10.672Z,8.36
2023-04-15T01:58:10.674Z,8.27
2023-04-15T01:59:10.684Z,8.17
2023-04-15T02:00:10.668Z,8.24
2023-04-15T02:01:10.708Z,8.27
2023-04-15T02:02:10.741Z,8.32
2023-04-15T02:03:10.693Z,8.22
2023-04-15T02:04:10.902Z,7.97
2023-04-15T02:05:10.637Z,8.08
2023-04-15T02:06:10.645Z,8.20
2023-04-15T02:07:10.634Z,8.04
2023-04-15T02:08:10.645Z,8.08
2023-04-15T02:09:10.615Z,8.04
2023-04-15T02:10:10.637Z,8.12
2023-04-15T02:11:10.606Z,7.92
2023-04-15T02:12:10.595Z,8.10
2023-04-15T02:13:10.595Z,7.94
2023-04-15T02:14:10.614Z,7.88
2023-04-15T02:15:10.596Z,7.94
2023-04-15T02:16:10.622Z,7.82
2023-04-15T02:17:10.612Z,7.98
2023-04-15T02:18:10.615Z,7.89
2023-04-15T02:19:10.604Z,7.91
2023-04-15T02:20:10.660Z,7.82
2023-04-15T02:21:10.620Z,7.86
2023-04-15T02:22:10.610Z,7.67
2023-04-15T02:23:10.603Z,7.83
2023-04-15T02:24:10.596Z,7.70
2023-04-15T02:25:10.614Z,7.75
2023-04-15T02:26:10.599Z,7.78
2023-04-15T02:27:10.628Z,7.61
2023-04-15T02:28:10.597Z,7.83
2023-04-15T02:29:10.627Z,7.96
2023-04-15T02:30:10.614Z,7.61
2023-04-15T02:31:10.652Z,7.69
2023-04-15T02:32:10.657Z,7.95
2023-04-15T02:33:10.645Z,7.61
2023-04-15T02:34:10.637Z,7.55
2023-04-15T02:35:10.657Z,7.59
2023-04-15T02:36:10.648Z,7.56
2023-04-15T02:37:10.661Z,7.54
2023-04-15T02:38:10.655Z,7.62
2023-04-15T02:39:10.684Z,7.44
2023-04-15T02:40:10.673Z,7.47
2023-04-15T02:41:10.670Z,7.50
2023-04-15T02:42:10.683Z,7.59
2023-04-15T02:43:10.687Z,7.27
2023-04-15T02:44:11.504Z,7.23
2023-04-15T02:45:10.724Z,7.30
2023-04-15T02:46:10.742Z,7.00
2023-04-15T02:47:10.713Z,6.43
2023-04-15T02:48:10.738Z,5.69
2023-04-15T02:49:10.752Z,5.20
2023-04-15T02:50:10.780Z,4.68
2023-04-15T02:51:10.766Z,4.34
2023-04-15T02:52:10.786Z,4.01
2023-04-15T02:53:10.823Z,3.70
2023-04-15T02:54:10.874Z,3.47
2023-04-15T02:55:10.907Z,3.24
2023-04-15T02:56:10.933Z,3.04
2023-04-15T02:57:11.010Z,2.86
2023-04-15T02:58:11.054Z,2.70
2023-04-15T02:59:11.118Z,2.54
2023-04-15T03:00:11.202Z,2.39
2023-04-15T03:01:11.277Z,2.23
2023-04-15T03:02:11.428Z,2.17
2023-04-15T03:03:11.498Z,2.11
2023-04-15T03:04:11.586Z,1.95
2023-04-15T03:05:11.453Z,1.87
2023-04-15T03:06:11.480Z,1.75
2023-04-15T03:07:11.499Z,1.71
2023-04-15T03:08:11.557Z,1.65
2023-04-15T03:09:11.567Z,1.61
2023-04-15T03:10:11.624Z,1.58
2023-04-15T03:11:11.646Z,1.54
2023-04-15T03:12:11.670Z,1.48
2023-04-15T03:13:11.715Z,1.44
2023-04-15T03:14:11.756Z,1.39
2023-04-15T03:15:11.814Z,1.35
2023-04-15T03:16:11.858Z,1.31
2023-04-15T03:17:11.865Z,1.29
2023-04-15T03:18:11.913Z,1.27
2023-04-15T03:19:11.925Z,1.27
2023-04-15T03:20:11.981Z,1.26
2023-04-15T03:21:11.975Z,1.23
2023-04-15T03:22:11.982Z,1.21
2023-04-15T03:23:11.989Z,1.18
2023-04-15T03:24:11.998Z,1.16
2023-04-15T03:25:12.027Z,1.14
2023-04-15T03:26:12.034Z,1.13
2023-04-15T03:27:12.053Z,1.11
2023-04-15T03:28:12.069Z,1.09
2023-04-15T03:29:12.114Z,1.08
2023-04-15T03:30:12.110Z,1.05
2023-04-15T03:31:12.189Z,1.03
2023-04-15T03:32:12.154Z,1.01
2023-04-15T03:33:12.159Z,0.97
2023-04-15T03:34:12.177Z,0.97
2023-04-15T03:35:12.207Z,0.95
2023-04-15T03:36:12.215Z,0.94
2023-04-15T03:37:12.257Z,0.93
2023-04-15T03:38:12.250Z,0.94
2023-04-15T03:39:12.280Z,0.92
2023-04-15T03:40:12.326Z,0.94
2023-04-15T03:41:12.359Z,0.93
2023-04-15T03:42:12.390Z,0.91
2023-04-15T03:43:12.443Z,0.91
2023-04-15T03:44:12.489Z,0.90
2023-04-15T03:45:12.560Z,0.89
2023-04-15T03:46:12.658Z,0.88
2023-04-15T03:47:12.663Z,0.88
2023-04-15T03:48:17.905Z,0.88
2023-04-15T03:49:13.745Z,0.88
2023-04-15T03:50:12.797Z,0.86
2023-04-15T03:51:12.784Z,0.85
2023-04-15T03:52:12.829Z,0.85
2023-04-15T03:53:12.851Z,0.84
2023-04-15T03:54:12.859Z,0.83
2023-04-15T03:55:12.885Z,0.84
2023-04-15T03:56:12.874Z,0.81
2023-04-15T03:57:12.900Z,0.81
2023-04-15T03:58:12.981Z,0.80
2023-04-15T03:59:12.929Z,0.80
2023-04-15T04:00:12.971Z,0.80
2023-04-15T04:01:13.002Z,0.79
2023-04-15T04:02:13.059Z,0.79
2023-04-15T04:03:13.126Z,0.79
2023-04-15T04:04:13.151Z,0.79
2023-04-15T04:05:13.082Z,0.78
2023-04-15T04:06:13.133Z,0.78
2023-04-15T04:07:13.194Z,0.77
2023-04-15T04:08:13.253Z,0.77
2023-04-15T04:09:13.324Z,0.74
2023-04-15T04:10:13.402Z,0.74
2023-04-15T04:11:13.483Z,0.73
2023-04-15T04:12:13.535Z,0.72
2023-04-15T04:13:13.609Z,0.71
2023-04-15T04:14:13.707Z,0.71
2023-04-15T04:15:13.773Z,0.72
2023-04-15T04:16:13.897Z,0.71
2023-04-15T04:17:13.973Z,0.70
2023-04-15T04:18:13.947Z,0.70
2023-04-15T04:19:13.957Z,0.70
2023-04-15T04:20:13.967Z,0.70
2023-04-15T04:21:14.004Z,0.70
2023-04-15T04:22:14.019Z,0.70
2023-04-15T04:23:14.044Z,0.70
2023-04-15T04:24:14.058Z,0.70
2023-04-15T04:25:14.092Z,0.70
2023-04-15T04:26:14.121Z,0.69
2023-04-15T04:27:14.121Z,0.68
2023-04-15T04:28:14.171Z,0.68
2023-04-15T04:29:14.203Z,0.66
2023-04-15T04:30:14.296Z,0.64
2023-04-15T04:31:14.377Z,0.63
2023-04-15T04:32:14.488Z,0.62
2023-04-15T04:33:14.531Z,0.62
2023-04-15T04:34:14.610Z,0.61
2023-04-15T04:35:14.706Z,0.60
2023-04-15T04:36:14.804Z,0.60
2023-04-15T04:37:14.879Z,0.60
2023-04-15T04:38:14.964Z,0.59
2023-04-15T04:39:15.052Z,0.60
2023-04-15T04:40:15.119Z,0.58
2023-04-15T04:41:15.240Z,0.59
2023-04-15T04:42:15.282Z,0.58
2023-04-15T04:43:15.376Z,0.57
2023-04-15T04:44:15.465Z,0.56
2023-04-15T04:45:15.556Z,0.56
2023-04-15T04:46:15.637Z,0.56
2023-04-15T04:47:15.706Z,0.56
2023-04-15T04:48:15.791Z,0.56
2023-04-15T04:49:15.887Z,0.56
2023-04-15T04:50:15.976Z,0.57
2023-04-15T04:51:16.070Z,0.56
2023-04-15T04:52:16.130Z,0.56
2023-04-15T04:53:16.226Z,0.56
2023-04-15T04:54:16.305Z,0.57
2023-04-15T04:55:16.394Z,0.56
2023-04-15T04:56:16.495Z,0.56
2023-04-15T04:57:16.607Z,0.56
2023-04-15T04:58:16.662Z,0.56
2023-04-15T04:59:17.012Z,0.54
2023-04-15T05:00:16.855Z,0.53
2023-04-15T05:01:16.954Z,0.53
2023-04-15T05:02:17.130Z,0.52
2023-04-15T05:03:17.424Z,0.53
2023-04-15T05:04:17.286Z,0.52
2023-04-15T05:05:17.281Z,0.52
2023-04-15T05:06:17.386Z,0.52
2023-04-15T05:07:17.467Z,0.52
2023-04-15T05:08:17.562Z,0.51
2023-04-15T05:09:17.663Z,0.51
2023-04-15T05:10:17.762Z,0.51
2023-04-15T05:11:17.854Z,0.51
2023-04-15T05:12:17.941Z,0.51
2023-04-15T05:13:18.034Z,0.51
2023-04-15T05:14:18.161Z,0.51
2023-04-15T05:15:18.222Z,0.51
2023-04-15T05:16:18.448Z,0.52
2023-04-15T05:17:18.398Z,0.53
2023-04-15T05:18:18.461Z,0.53
2023-04-15T05:19:18.531Z,0.53
2023-04-15T05:20:18.627Z,0.54
2023-04-15T05:21:18.686Z,0.56
2023-04-15T05:22:18.742Z,0.56
2023-04-15T05:23:18.839Z,0.56
2023-04-15T05:24:18.912Z,0.55
2023-04-15T05:25:18.983Z,0.56
2023-04-15T05:26:19.075Z,0.57
2023-04-15T05:27:19.150Z,0.57
2023-04-15T05:28:19.252Z,0.57
2023-04-15T05:29:19.362Z,0.58
2023-04-15T05:30:19.451Z,0.57
2023-04-15T05:31:19.600Z,0.59
2023-04-15T05:32:19.679Z,0.58
2023-04-15T05:33:19.687Z,0.59
2023-04-15T05:34:19.731Z,0.59
2023-04-15T05:35:19.856Z,0.60
2023-04-15T05:36:19.922Z,0.60
2023-04-15T05:37:20.007Z,0.59
2023-04-15T05:38:20.059Z,0.59
2023-04-15T05:39:20.151Z,0.59
2023-04-15T05:40:20.212Z,0.59
2023-04-15T05:41:20.306Z,0.59
2023-04-15T05:42:20.374Z,0.58
2023-04-15T05:43:20.465Z,0.59
2023-04-15T05:44:20.579Z,0.59
2023-04-15T05:45:20.657Z,0.59
2023-04-15T05:46:20.795Z,0.58
2023-04-15T05:47:20.844Z,0.58
2023-04-15T05:49:39.852Z,0.50
2023-04-15T05:50:39.849Z,0.50
2023-04-15T05:51:39.816Z,0.50
2023-04-15T05:52:39.813Z,0.50
2023-04-15T05:53:39.790Z,0.50
2023-04-15T05:54:39.781Z,0.50
2023-04-15T05:55:39.760Z,0.50
2023-04-15T05:56:39.748Z,0.50
2023-04-15T05:57:39.744Z,0.50
2023-04-15T05:58:39.725Z,0.50
2023-04-15T05:59:39.709Z,0.50
2023-04-15T06:00:39.717Z,0.50
2023-04-15T06:01:39.697Z,0.50
2023-04-15T06:02:39.728Z,0.50
2023-04-15T06:03:39.750Z,0.51
2023-04-15T06:04:39.699Z,0.50
2023-04-15T06:05:39.633Z,0.50
2023-04-15T06:06:39.632Z,0.51
2023-04-15T06:07:39.619Z,0.50
2023-04-15T06:08:39.605Z,0.51
2023-04-15T06:09:39.590Z,0.51
2023-04-15T06:10:39.577Z,0.51
2023-04-15T06:11:39.566Z,0.52
2023-04-15T06:12:39.558Z,0.51
2023-04-15T06:13:39.538Z,0.51
2023-04-15T06:14:39.535Z,0.52
2023-04-15T06:15:39.526Z,0.51
2023-04-15T06:16:39.535Z,0.50
2023-04-15T06:17:39.548Z,0.51
2023-04-15T06:18:39.478Z,0.51
2023-04-15T06:19:39.473Z,0.51
2023-04-15T06:20:39.461Z,0.50
2023-04-15T06:21:39.451Z,0.51
2023-04-15T06:22:39.444Z,0.51
2023-04-15T06:23:39.437Z,0.51
2023-04-15T06:24:39.435Z,0.51
2023-04-15T06:25:39.420Z,0.50
2023-04-15T06:26:39.427Z,0.51
2023-04-15T06:27:39.398Z,0.50
2023-04-15T06:28:39.397Z,0.51
2023-04-15T06:29:39.364Z,0.51
2023-04-15T06:30:39.361Z,0.51
2023-04-15T06:31:39.386Z,0.50
2023-04-15T06:32:39.352Z,0.50
2023-04-15T06:33:39.320Z,0.51
2023-04-15T06:34:39.315Z,0.50
2023-04-15T06:35:39.326Z,0.50
2023-04-15T06:36:39.362Z,0.50
2023-04-15T06:37:39.305Z,0.50
2023-04-15T06:38:39.296Z,0.47
2023-04-15T06:39:39.276Z,0.46
2023-04-15T06:40:39.251Z,0.44
2023-04-15T06:41:39.273Z,0.44
2023-04-15T06:42:39.247Z,0.50
2023-04-15T06:43:39.248Z,0.50
2023-04-15T06:44:39.286Z,0.50
2023-04-15T06:45:39.415Z,0.50
2023-04-15T06:46:39.402Z,0.50
2023-04-15T06:47:39.504Z,0.50
2023-04-15T06:48:39.494Z,0.50
2023-04-15T06:49:39.546Z,0.50
2023-04-15T06:50:39.584Z,0.51
2023-04-15T06:51:39.621Z,0.51
2023-04-15T06:52:39.617Z,0.51
2023-04-15T06:53:39.607Z,0.51
2023-04-15T06:54:39.635Z,0.50
2023-04-15T06:55:39.694Z,0.51
2023-04-15T06:56:39.714Z,0.50
2023-04-15T06:57:39.756Z,0.50
2023-04-15T06:58:39.809Z,0.51
2023-04-15T06:59:39.861Z,0.51
2023-04-15T07:00:39.901Z,0.50
2023-04-15T07:01:39.952Z,0.50
2023-04-15T07:02:40.101Z,0.50
2023-04-15T07:03:40.006Z,0.50
2023-04-15T07:04:40.264Z,0.51
2023-04-15T07:05:40.061Z,0.50
2023-04-15T07:06:40.064Z,0.51
2023-04-15T07:07:40.102Z,0.51
2023-04-15T07:08:40.136Z,0.52
2023-04-15T07:09:40.204Z,0.51
2023-04-15T07:10:40.250Z,0.51
2023-04-15T07:11:40.255Z,0.51
2023-04-15T07:12:40.245Z,0.49
2023-04-15T07:13:40.221Z,0.48
2023-04-15T07:14:40.214Z,0.47
2023-04-15T07:15:40.186Z,0.45
2023-04-15T07:16:40.271Z,0.50
2023-04-15T07:17:40.253Z,0.50
2023-04-15T07:18:40.171Z,0.51
2023-04-15T07:19:40.216Z,0.50
2023-04-15T07:20:40.286Z,0.51
2023-04-15T07:21:41.949Z,0.50
2023-04-15T07:22:40.407Z,0.50
2023-04-15T07:23:40.498Z,0.50
2023-04-15T07:24:40.509Z,0.50
2023-04-15T07:25:40.560Z,0.50
2023-04-15T07:26:40.641Z,0.50
2023-04-15T07:27:40.682Z,0.51
2023-04-15T07:28:40.729Z,0.50
2023-04-15T07:29:40.804Z,0.50
2023-04-15T07:30:40.870Z,0.51
2023-04-15T07:31:40.899Z,0.50
2023-04-15T07:32:41.010Z,0.50
2023-04-15T07:33:40.999Z,0.51
2023-04-15T07:34:41.063Z,0.50
2023-04-15T07:35:41.104Z,0.50
2023-04-15T07:36:41.167Z,0.50
2023-04-15T07:37:41.241Z,0.50
2023-04-15T07:38:41.265Z,0.50
2023-04-15T07:39:41.301Z,0.50
2023-04-15T07:40:41.344Z,0.51
2023-04-15T07:41:41.378Z,0.50
2023-04-15T07:42:41.536Z,0.51
2023-04-15T07:43:41.451Z,0.51
2023-04-15T07:44:41.505Z,0.53
2023-04-15T07:45:41.576Z,0.52
2023-04-15T07:46:41.600Z,0.52
2023-04-15T07:47:41.658Z,0.53
2023-04-15T07:48:41.658Z,0.53
2023-04-15T07:49:41.704Z,0.53
2023-04-15T07:50:41.743Z,0.52
2023-04-15T07:51:41.818Z,0.51
2023-04-15T07:52:41.868Z,0.50
2023-04-15T07:53:41.905Z,0.51
2023-04-15T07:54:41.950Z,0.50
2023-04-15T07:55:41.987Z,0.51
2023-04-15T07:56:42.075Z,0.51
2023-04-15T07:57:42.111Z,0.50
2023-04-15T07:58:42.171Z,0.50
2023-04-15T07:59:42.208Z,0.51
2023-04-15T08:00:42.272Z,0.50
2023-04-15T08:01:42.298Z,0.50
2023-04-15T08:02:42.547Z,0.50
2023-04-15T08:03:42.645Z,0.50
2023-04-15T08:04:42.533Z,0.51
2023-04-15T08:05:42.431Z,0.51
2023-04-15T08:06:42.431Z,0.50
2023-04-15T08:07:42.422Z,0.47
2023-04-15T08:08:42.374Z,0.47
2023-04-15T08:09:42.348Z,0.46
2023-04-15T08:10:42.328Z,0.50
2023-04-15T08:11:42.325Z,0.50
2023-04-15T08:12:42.314Z,0.51
2023-04-15T08:13:42.326Z,0.51
2023-04-15T08:14:42.377Z,0.50
2023-04-15T08:15:42.436Z,0.50
2023-04-15T08:16:42.525Z,0.50
2023-04-15T08:17:42.573Z,0.50
2023-04-15T08:18:42.476Z,0.49
2023-04-15T08:19:42.469Z,0.48
2023-04-15T08:20:42.446Z,0.47
2023-04-15T08:21:42.418Z,0.46
2023-04-15T08:22:42.430Z,0.51
2023-04-15T08:23:42.400Z,0.50
2023-04-15T08:24:42.372Z,0.50
2023-04-15T08:25:42.384Z,0.51
2023-04-15T08:26:42.447Z,0.51
2023-04-15T08:27:42.470Z,0.50
2023-04-15T08:28:42.495Z,0.51
2023-04-15T08:29:42.547Z,0.51
2023-04-15T08:30:42.595Z,0.50
2023-04-15T08:31:42.686Z,0.50
2023-04-15T08:32:42.716Z,0.50
2023-04-15T08:33:42.722Z,0.50
2023-04-15T08:34:42.741Z,0.50
2023-04-15T08:35:42.782Z,0.51
2023-04-15T08:36:42.827Z,0.51
2023-04-15T08:37:42.905Z,0.51
2023-04-15T08:38:42.881Z,0.51
2023-04-15T08:39:42.910Z,0.52
2023-04-15T08:40:42.962Z,0.51
2023-04-15T08:41:42.990Z,0.51
2023-04-15T08:42:44.431Z,0.52
2023-04-15T08:43:43.042Z,0.52
2023-04-15T08:44:43.014Z,0.52
2023-04-15T08:45:42.990Z,0.52
2023-04-15T08:46:43.015Z,0.52
2023-04-15T08:47:43.054Z,0.52
2023-04-15T08:48:42.966Z,0.54
2023-04-15T08:49:42.876Z,0.58
2023-04-15T08:50:42.814Z,0.67
2023-04-15T08:51:42.804Z,0.90
2023-04-15T08:52:42.796Z,0.98
2023-04-15T08:53:42.696Z,1.06
2023-04-15T08:54:42.638Z,1.17
2023-04-15T08:55:42.616Z,1.28
2023-04-15T08:56:42.625Z,1.37
2023-04-15T08:57:42.514Z,1.47
2023-04-15T08:58:42.459Z,1.59
2023-04-15T08:59:42.429Z,1.74
2023-04-15T09:00:42.373Z,1.95
2023-04-15T09:01:42.381Z,2.15
2023-04-15T09:02:42.449Z,2.37
2023-04-15T09:03:42.457Z,2.61
2023-04-15T09:04:42.352Z,2.78
2023-04-15T09:05:42.359Z,3.10
2023-04-15T09:06:42.370Z,3.23
2023-04-15T09:07:42.370Z,3.58
2023-04-15T09:08:42.354Z,3.87
2023-04-15T09:09:42.344Z,4.08
2023-04-15T09:10:42.336Z,4.35
2023-04-15T09:11:42.332Z,4.67
2023-04-15T09:12:42.349Z,5.06
2023-04-15T09:13:42.342Z,5.40
2023-04-15T09:14:42.325Z,5.89
2023-04-15T09:15:42.323Z,6.35
2023-04-15T09:16:42.367Z,6.42
2023-04-15T09:17:42.319Z,7.12
2023-04-15T09:18:42.300Z,7.01
2023-04-15T09:19:42.287Z,7.50
2023-04-15T09:20:42.283Z,7.99
2023-04-15T09:21:42.239Z,8.32
2023-04-15T09:22:42.257Z,8.39
2023-04-15T09:23:42.205Z,9.19
2023-04-15T09:24:42.213Z,9.49
2023-04-15T09:25:42.157Z,10.02
2023-04-15T09:26:42.163Z,10.46
2023-04-15T09:27:42.121Z,10.18
2023-04-15T09:28:42.098Z,10.75
2023-04-15T09:29:42.079Z,10.84
2023-04-15T09:30:42.072Z,11.23
2023-04-15T09:31:41.986Z,11.72
2023-04-15T09:32:41.956Z,11.73
2023-04-15T09:33:41.890Z,11.80
2023-04-15T09:34:41.842Z,12.00
2023-04-15T09:35:41.790Z,12.45
2023-04-15T09:36:41.741Z,13.60
2023-04-15T09:37:41.700Z,14.05
2023-04-15T09:38:41.620Z,13.77
2023-04-15T09:39:41.573Z,14.88
2023-04-15T09:40:41.515Z,14.74
2023-04-15T09:41:41.465Z,15.50
2023-04-15T09:42:41.399Z,15.81
2023-04-15T09:43:41.338Z,16.24
2023-04-15T09:44:41.278Z,16.49
2023-04-15T09:45:41.287Z,16.96
2023-04-15T09:46:41.190Z,17.22
2023-04-15T09:47:41.102Z,17.62
2023-04-15T09:48:41.065Z,17.99
2023-04-15T09:49:41.047Z,18.52
2023-04-15T09:50:40.945Z,18.98
2023-04-15T09:51:42.174Z,19.25
2023-04-15T09:52:40.833Z,19.36
2023-04-15T09:53:40.795Z,19.72
2023-04-15T09:54:40.759Z,20.23
2023-04-15T09:55:40.739Z,20.43
2023-04-15T09:56:40.710Z,20.73
2023-04-15T09:57:40.725Z,21.17
2023-04-15T09:58:40.692Z,21.54
2023-04-15T09:59:40.634Z,21.63
2023-04-15T10:00:40.537Z,21.88
2023-04-15T10:01:40.557Z,22.57
2023-04-15T10:02:40.585Z,22.87
2023-04-15T10:03:40.573Z,22.81
2023-04-15T10:04:40.436Z,23.11
2023-04-15T10:05:40.355Z,23.14
2023-04-15T10:06:40.302Z,23.18
2023-04-15T10:07:40.246Z,23.46
2023-04-15T10:08:40.170Z,23.85
2023-04-15T10:09:40.121Z,25.04
2023-04-15T10:10:40.049Z,24.57
2023-04-15T10:11:39.984Z,25.14
2023-04-15T10:12:39.924Z,25.76
2023-04-15T10:13:39.865Z,25.34
2023-04-15T10:14:39.841Z,25.31
2023-04-15T10:15:39.866Z,25.60
2023-04-15T10:16:39.817Z,26.00
2023-04-15T10:17:39.865Z,26.20
2023-04-15T10:18:39.819Z,26.62
2023-04-15T10:19:39.811Z,26.61
2023-04-15T10:20:39.811Z,27.03
2023-04-15T10:21:39.827Z,26.56
2023-04-15T10:22:39.821Z,27.70
2023-04-15T10:23:39.758Z,27.71
2023-04-15T10:24:39.701Z,27.85
2023-04-15T10:25:39.643Z,28.24
2023-04-15T10:26:39.591Z,28.30
2023-04-15T10:27:39.513Z,29.05
2023-04-15T10:28:39.443Z,29.05
2023-04-15T10:29:39.393Z,29.06
2023-04-15T10:30:39.320Z,29.48
2023-04-15T10:31:39.308Z,29.63
2023-04-15T10:32:39.203Z,29.73
2023-04-15T10:33:39.194Z,29.53
2023-04-15T10:34:39.189Z,30.26
2023-04-15T10:35:39.179Z,30.73
2023-04-15T10:36:39.154Z,30.50
2023-04-15T10:37:39.128Z,30.96
2023-04-15T10:38:39.097Z,30.53
2023-04-15T10:39:39.128Z,30.76
2023-04-15T10:40:39.081Z,30.71
2023-04-15T10:41:39.082Z,31.08
2023-04-15T10:42:39.063Z,30.88
2023-04-15T10:43:39.057Z,30.90
2023-04-15T10:44:39.076Z,30.88
2023-04-15T10:45:39.054Z,31.45
2023-04-15T10:46:39.121Z,31.16
2023-04-15T10:47:39.081Z,31.07
2023-04-15T10:48:39.021Z,31.09
2023-04-15T10:49:39.031Z,31.54
2023-04-15T10:50:39.008Z,32.02
2023-04-15T10:51:39.007Z,31.23
2023-04-15T10:52:38.993Z,31.88
2023-04-15T10:53:38.986Z,31.44
2023-04-15T10:54:39.019Z,31.90
2023-04-15T10:55:38.964Z,32.39
2023-04-15T10:56:38.951Z,31.25
2023-04-15T10:57:38.957Z,32.10
2023-04-15T10:58:38.928Z,31.66
2023-04-15T10:59:38.941Z,32.58
2023-04-15T11:00:38.935Z,32.89
2023-04-15T11:01:38.937Z,32.55
2023-04-15T11:02:39.069Z,32.40
2023-04-15T11:03:39.206Z,32.82
2023-04-15T11:04:40.948Z,32.73
2023-04-15T11:05:38.862Z,32.29
2023-04-15T11:06:38.775Z,32.69
2023-04-15T11:07:38.713Z,33.21
2023-04-15T11:08:38.653Z,32.24
2023-04-15T11:09:38.614Z,31.87
2023-04-15T11:10:38.588Z,32.52
2023-04-15T11:11:38.471Z,32.58
2023-04-15T11:12:38.429Z,32.50
2023-04-15T11:13:38.362Z,32.19
2023-04-15T11:14:38.280Z,32.84
2023-04-15T11:15:38.209Z,32.44
2023-04-15T11:16:38.162Z,32.94
2023-04-15T11:17:38.134Z,32.58
2023-04-15T11:18:38.037Z,32.39
2023-04-15T11:19:37.966Z,32.55
2023-04-15T11:20:37.894Z,32.99
2023-04-15T11:21:37.825Z,33.34
2023-04-15T11:22:37.779Z,32.78
2023-04-15T11:23:37.684Z,33.45
2023-04-15T11:24:37.650Z,32.74
2023-04-15T11:25:37.560Z,32.01
2023-04-15T11:26:37.500Z,32.80
2023-04-15T11:27:37.439Z,32.85
2023-04-15T11:28:38.282Z,32.42
2023-04-15T11:29:37.342Z,33.00
2023-04-15T11:30:37.260Z,32.89
2023-04-15T11:31:37.206Z,33.33
2023-04-15T11:32:37.143Z,32.74
2023-04-15T11:33:37.060Z,32.77
2023-04-15T11:34:37.002Z,32.64
2023-04-15T11:35:36.991Z,32.44
2023-04-15T11:36:36.866Z,32.82
2023-04-15T11:37:36.814Z,32.76
2023-04-15T11:38:36.731Z,33.18
2023-04-15T11:39:36.662Z,32.62
2023-04-15T11:40:36.633Z,33.15
2023-04-15T11:41:36.544Z,32.34
2023-04-15T11:42:48.583Z,33.06
2023-04-15T11:43:37.407Z,33.08
2023-04-15T11:44:36.348Z,33.24
2023-04-15T11:45:36.310Z,33.25
2023-04-15T11:46:36.244Z,33.77
2023-04-15T11:47:36.217Z,32.49
2023-04-15T11:48:36.114Z,32.83
2023-04-15T11:49:36.044Z,33.02
2023-04-15T11:50:35.979Z,32.25
2023-04-15T11:51:35.912Z,33.16
2023-04-15T11:52:35.851Z,33.01
2023-04-15T11:53:35.774Z,32.78
2023-04-15T11:54:35.737Z,33.15
2023-04-15T11:55:35.742Z,33.05
2023-04-15T11:56:35.661Z,33.08
2023-04-15T11:57:35.594Z,33.14
2023-04-15T11:58:35.546Z,33.00
2023-04-15T11:59:44.484Z,33.49
2023-04-15T12:00:36.414Z,33.13
2023-04-15T12:01:35.466Z,33.23
2023-04-15T12:02:35.335Z,33.39
2023-04-15T12:03:35.395Z,33.14
2023-04-15T12:04:35.362Z,33.86
2023-04-15T12:05:35.097Z,34.09
2023-04-15T12:06:35.086Z,33.92
2023-04-15T12:07:34.957Z,33.64
2023-04-15T12:08:34.874Z,33.52
2023-04-15T12:09:34.817Z,33.16
2023-04-15T12:10:34.761Z,32.95
2023-04-15T12:11:34.729Z,33.69
2023-04-15T12:12:34.713Z,33.42
2023-04-15T12:13:34.700Z,33.64
2023-04-15T12:14:34.717Z,32.86
2023-04-15T12:15:34.718Z,32.68
2023-04-15T12:16:37.100Z,33.48
2023-04-15T12:17:51.619Z,33.49
2023-04-15T12:18:35.538Z,33.57
2023-04-15T12:19:34.470Z,33.78
2023-04-15T12:20:34.395Z,33.94
2023-04-15T12:21:34.327Z,34.26
2023-04-15T12:22:34.252Z,34.30
2023-04-15T12:23:34.188Z,34.18
2023-04-15T12:24:34.117Z,34.07
2023-04-15T12:25:34.073Z,34.13
2023-04-15T12:26:33.976Z,33.89
2023-04-15T12:27:33.904Z,33.99
2023-04-15T12:28:33.826Z,33.91
2023-04-15T12:29:33.770Z,33.54
2023-04-15T12:30:33.715Z,33.68
2023-04-15T12:31:33.690Z,33.01
2023-04-15T12:32:33.570Z,33.11
2023-04-15T12:33:33.522Z,33.03
2023-04-15T12:34:33.447Z,32.88
2023-04-15T12:35:33.375Z,33.32
2023-04-15T12:36:33.304Z,33.35
2023-04-15T12:37:33.256Z,33.41
2023-04-15T12:38:33.162Z,33.27
2023-04-15T12:39:33.134Z,33.54
2023-04-15T12:40:33.044Z,33.73
2023-04-15T12:41:32.997Z,33.39
2023-04-15T12:42:32.914Z,32.70
2023-04-15T12:43:32.850Z,33.60
2023-04-15T12:44:32.786Z,32.91
2023-04-15T12:45:32.749Z,33.35
2023-04-15T12:46:32.727Z,33.38
2023-04-15T12:47:32.733Z,32.99
2023-04-15T12:48:32.644Z,32.79
2023-04-15T12:49:32.651Z,32.52
2023-04-15T12:50:32.588Z,32.57
2023-04-15T12:51:32.518Z,32.62
2023-04-15T12:52:32.459Z,32.79
2023-04-15T12:53:32.390Z,32.73
2023-04-15T12:54:32.313Z,33.13
2023-04-15T12:55:32.268Z,33.14
2023-04-15T12:56:32.180Z,32.55
2023-04-15T12:57:32.113Z,32.39
2023-04-15T12:58:32.061Z,33.17
2023-04-15T12:59:31.999Z,32.63
2023-04-15T13:00:31.937Z,32.63
2023-04-15T13:01:31.888Z,32.53
2023-04-15T13:02:31.891Z,33.08
2023-04-15T13:03:31.935Z,33.18
2023-04-15T13:04:31.814Z,32.73
2023-04-15T13:05:31.712Z,32.29
2023-04-15T13:06:31.651Z,32.62
2023-04-15T13:07:31.637Z,32.46
2023-04-15T13:08:31.632Z,31.83
2023-04-15T13:09:31.620Z,32.64
2023-04-15T13:10:31.625Z,32.35
2023-04-15T13:11:31.606Z,31.77